sensor_id;sensor_type;location;lat;lon;timestamp;P1;durP1;ratioP1;P2;durP2;ratioP2
56373;SDS011;58212;47.034;7.376;2022-08-18T00:00:09;8.27;;;7.47;;
56373;SDS011;58212;47.034;7.376;2022-08-18T00:02:39;6.78;;;6.28;;
56373;SDS011;58212;47.034;7.376;2022-08-18T00:05:08;7.60;;;7.00;;
56373;SDS011;58212;47.034;7.376;2022-08-18T00:07:36;8.05;;;7.25;;
56373;SDS011;58212;47.034;7.376;2022-08-18T00:10:04;8.10;;;7.40;;
56373;SDS011;58212;47.034;7.376;2022-08-18T00:12:33;7.13;;;6.43;;
56373;SDS011;58212;47.034;7.376;2022-08-18T00:15:07;8.23;;;7.43;;
56373;SDS011;58212;47.034;7.376;2022-08-18T00:17:40;7.97;;;6.88;;
56373;SDS011;58212;47.034;7.376;2022-08-18T00:20:09;8.48;;;7.43;;
56373;SDS011;58212;47.034;7.376;2022-08-18T00:22:39;8.45;;;7.22;;
56373;SDS011;58212;47.034;7.376;2022-08-18T00:25:07;8.80;;;8.00;;
56373;SDS011;58212;47.034;7.376;2022-08-18T00:27:35;8.95;;;8.15;;
56373;SDS011;58212;47.034;7.376;2022-08-18T00:30:04;8.70;;;7.80;;
56373;SDS011;58212;47.034;7.376;2022-08-18T00:32:36;9.23;;;8.43;;
56373;SDS011;58212;47.034;7.376;2022-08-18T00:35:07;8.80;;;7.97;;
56373;SDS011;58212;47.034;7.376;2022-08-18T00:37:37;8.40;;;7.60;;
56373;SDS011;58212;47.034;7.376;2022-08-18T00:40:05;8.05;;;7.35;;
56373;SDS011;58212;47.034;7.376;2022-08-18T00:42:38;8.50;;;7.15;;
56373;SDS011;58212;47.034;7.376;2022-08-18T00:45:11;7.97;;;7.20;;
56373;SDS011;58212;47.034;7.376;2022-08-18T00:47:41;7.78;;;7.07;;
56373;SDS011;58212;47.034;7.376;2022-08-18T00:50:12;7.32;;;6.72;;
56373;SDS011;58212;47.034;7.376;2022-08-18T00:52:44;8.27;;;7.40;;
56373;SDS011;58212;47.034;7.376;2022-08-18T00:55:14;8.20;;;7.43;;
56373;SDS011;58212;47.034;7.376;2022-08-18T00:57:43;7.88;;;7.07;;
56373;SDS011;58212;47.034;7.376;2022-08-18T01:00:17;9.40;;;8.07;;
56373;SDS011;58212;47.034;7.376;2022-08-18T01:02:47;8.35;;;7.65;;
56373;SDS011;58212;47.034;7.376;2022-08-18T01:05:20;8.73;;;7.75;;
56373;SDS011;58212;47.034;7.376;2022-08-18T01:07:51;8.30;;;7.57;;
56373;SDS011;58212;47.034;7.376;2022-08-18T01:10:19;7.82;;;7.20;;
56373;SDS011;58212;47.034;7.376;2022-08-18T01:12:51;8.43;;;7.63;;
56373;SDS011;58212;47.034;7.376;2022-08-18T01:15:21;7.32;;;6.63;;
56373;SDS011;58212;47.034;7.376;2022-08-18T01:17:50;7.35;;;6.75;;
56373;SDS011;58212;47.034;7.376;2022-08-18T01:20:38;7.65;;;6.95;;
56373;SDS011;58212;47.034;7.376;2022-08-18T01:23:28;8.25;;;7.57;;
56373;SDS011;58212;47.034;7.376;2022-08-18T01:25:56;7.75;;;7.07;;
56373;SDS011;58212;47.034;7.376;2022-08-18T01:28:25;8.50;;;7.72;;
56373;SDS011;58212;47.034;7.376;2022-08-18T01:30:53;8.25;;;7.57;;
56373;SDS011;58212;47.034;7.376;2022-08-18T01:33:23;7.53;;;6.65;;
56373;SDS011;58212;47.034;7.376;2022-08-18T01:35:58;8.18;;;7.45;;
56373;SDS011;58212;47.034;7.376;2022-08-18T01:38:29;8.07;;;7.40;;
56373;SDS011;58212;47.034;7.376;2022-08-18T01:40:56;8.27;;;7.50;;
56373;SDS011;58212;47.034;7.376;2022-08-18T01:43:24;7.35;;;6.75;;
56373;SDS011;58212;47.034;7.376;2022-08-18T01:45:51;7.55;;;6.85;;
56373;SDS011;58212;47.034;7.376;2022-08-18T01:48:25;7.82;;;7.13;;
56373;SDS011;58212;47.034;7.376;2022-08-18T01:50:54;8.10;;;7.28;;
56373;SDS011;58212;47.034;7.376;2022-08-18T01:53:21;7.70;;;7.03;;
56373;SDS011;58212;47.034;7.376;2022-08-18T01:55:50;8.15;;;7.55;;
56373;SDS011;58212;47.034;7.376;2022-08-18T01:58:19;7.50;;;6.75;;
56373;SDS011;58212;47.034;7.376;2022-08-18T02:00:52;6.95;;;6.35;;
56373;SDS011;58212;47.034;7.376;2022-08-18T02:03:22;6.40;;;5.90;;
56373;SDS011;58212;47.034;7.376;2022-08-18T02:05:52;6.90;;;6.10;;
56373;SDS011;58212;47.034;7.376;2022-08-18T02:08:24;6.78;;;6.13;;
56373;SDS011;58212;47.034;7.376;2022-08-18T02:10:52;5.82;;;5.43;;
56373;SDS011;58212;47.034;7.376;2022-08-18T02:13:21;7.45;;;5.97;;
56373;SDS011;58212;47.034;7.376;2022-08-18T02:15:49;7.05;;;6.03;;
56373;SDS011;58212;47.034;7.376;2022-08-18T02:18:17;6.82;;;5.65;;
56373;SDS011;58212;47.034;7.376;2022-08-18T02:20:46;6.20;;;5.57;;
56373;SDS011;58212;47.034;7.376;2022-08-18T02:23:13;6.15;;;5.65;;
56373;SDS011;58212;47.034;7.376;2022-08-18T02:25:41;6.20;;;5.80;;
56373;SDS011;58212;47.034;7.376;2022-08-18T02:28:10;6.28;;;5.78;;
56373;SDS011;58212;47.034;7.376;2022-08-18T02:30:37;6.00;;;5.50;;
56373;SDS011;58212;47.034;7.376;2022-08-18T02:33:05;6.30;;;5.80;;
56373;SDS011;58212;47.034;7.376;2022-08-18T02:35:33;6.20;;;5.72;;
56373;SDS011;58212;47.034;7.376;2022-08-18T02:38:01;6.25;;;5.47;;
56373;SDS011;58212;47.034;7.376;2022-08-18T02:40:29;6.68;;;6.10;;
56373;SDS011;58212;47.034;7.376;2022-08-18T02:42:58;6.18;;;5.57;;
56373;SDS011;58212;47.034;7.376;2022-08-18T02:45:34;7.30;;;5.65;;
56373;SDS011;58212;47.034;7.376;2022-08-18T02:48:03;6.60;;;6.10;;
56373;SDS011;58212;47.034;7.376;2022-08-18T02:50:33;6.80;;;6.15;;
56373;SDS011;58212;47.034;7.376;2022-08-18T02:53:08;6.82;;;6.13;;
56373;SDS011;58212;47.034;7.376;2022-08-18T02:55:37;6.63;;;6.03;;
56373;SDS011;58212;47.034;7.376;2022-08-18T02:58:04;7.13;;;6.43;;
56373;SDS011;58212;47.034;7.376;2022-08-18T03:00:31;6.95;;;6.30;;
56373;SDS011;58212;47.034;7.376;2022-08-18T03:03:00;6.53;;;6.03;;
56373;SDS011;58212;47.034;7.376;2022-08-18T03:05:27;9.05;;;7.28;;
56373;SDS011;58212;47.034;7.376;2022-08-18T03:07:54;8.77;;;6.90;;
56373;SDS011;58212;47.034;7.376;2022-08-18T03:10:21;7.70;;;7.00;;
56373;SDS011;58212;47.034;7.376;2022-08-18T03:12:48;7.45;;;6.80;;
56373;SDS011;58212;47.034;7.376;2022-08-18T03:15:15;7.88;;;7.28;;
56373;SDS011;58212;47.034;7.376;2022-08-18T03:17:42;8.05;;;7.35;;
56373;SDS011;58212;47.034;7.376;2022-08-18T03:20:11;8.15;;;7.38;;
56373;SDS011;58212;47.034;7.376;2022-08-18T03:22:38;8.07;;;7.28;;
56373;SDS011;58212;47.034;7.376;2022-08-18T03:25:05;8.10;;;7.40;;
56373;SDS011;58212;47.034;7.376;2022-08-18T03:27:33;7.85;;;7.25;;
56373;SDS011;58212;47.034;7.376;2022-08-18T03:30:00;8.60;;;7.90;;
56373;SDS011;58212;47.034;7.376;2022-08-18T03:32:28;8.07;;;7.47;;
56373;SDS011;58212;47.034;7.376;2022-08-18T03:34:55;8.32;;;7.53;;
56373;SDS011;58212;47.034;7.376;2022-08-18T03:37:27;8.57;;;7.78;;
56373;SDS011;58212;47.034;7.376;2022-08-18T03:39:54;8.88;;;8.18;;
56373;SDS011;58212;47.034;7.376;2022-08-18T03:42:24;8.93;;;8.13;;
56373;SDS011;58212;47.034;7.376;2022-08-18T03:44:53;8.32;;;7.70;;
56373;SDS011;58212;47.034;7.376;2022-08-18T03:47:20;8.40;;;7.63;;
56373;SDS011;58212;47.034;7.376;2022-08-18T03:49:47;9.25;;;8.30;;
56373;SDS011;58212;47.034;7.376;2022-08-18T03:52:14;8.77;;;8.07;;
56373;SDS011;58212;47.034;7.376;2022-08-18T03:54:43;9.57;;;8.77;;
56373;SDS011;58212;47.034;7.376;2022-08-18T03:57:10;9.38;;;8.68;;
56373;SDS011;58212;47.034;7.376;2022-08-18T03:59:40;9.32;;;8.63;;
56373;SDS011;58212;47.034;7.376;2022-08-18T04:02:08;8.27;;;7.45;;
56373;SDS011;58212;47.034;7.376;2022-08-18T04:04:37;8.85;;;8.18;;
56373;SDS011;58212;47.034;7.376;2022-08-18T04:07:08;8.82;;;7.82;;
56373;SDS011;58212;47.034;7.376;2022-08-18T04:09:38;8.80;;;8.00;;
56373;SDS011;58212;47.034;7.376;2022-08-18T04:12:09;8.40;;;7.68;;
56373;SDS011;58212;47.034;7.376;2022-08-18T04:14:40;8.02;;;7.32;;
56373;SDS011;58212;47.034;7.376;2022-08-18T04:17:10;7.80;;;7.18;;
56373;SDS011;58212;47.034;7.376;2022-08-18T04:19:37;8.02;;;7.32;;
56373;SDS011;58212;47.034;7.376;2022-08-18T04:22:05;7.97;;;7.32;;
56373;SDS011;58212;47.034;7.376;2022-08-18T04:24:32;7.78;;;7.03;;
56373;SDS011;58212;47.034;7.376;2022-08-18T04:27:00;8.38;;;7.68;;
56373;SDS011;58212;47.034;7.376;2022-08-18T04:29:30;7.72;;;7.03;;
56373;SDS011;58212;47.034;7.376;2022-08-18T04:31:59;7.35;;;6.63;;
56373;SDS011;58212;47.034;7.376;2022-08-18T04:34:28;7.57;;;6.97;;
56373;SDS011;58212;47.034;7.376;2022-08-18T04:36:55;7.35;;;6.75;;
56373;SDS011;58212;47.034;7.376;2022-08-18T04:39:22;7.32;;;6.63;;
56373;SDS011;58212;47.034;7.376;2022-08-18T04:41:50;6.80;;;6.30;;
56373;SDS011;58212;47.034;7.376;2022-08-18T04:44:18;7.75;;;7.15;;
56373;SDS011;58212;47.034;7.376;2022-08-18T04:46:48;6.78;;;6.18;;
56373;SDS011;58212;47.034;7.376;2022-08-18T04:49:17;7.32;;;6.80;;
56373;SDS011;58212;47.034;7.376;2022-08-18T04:51:46;7.18;;;6.68;;
56373;SDS011;58212;47.034;7.376;2022-08-18T04:54:36;8.85;;;6.55;;
56373;SDS011;58212;47.034;7.376;2022-08-18T04:57:08;7.53;;;6.85;;
56373;SDS011;58212;47.034;7.376;2022-08-18T04:59:38;6.97;;;6.43;;
56373;SDS011;58212;47.034;7.376;2022-08-18T05:02:08;7.15;;;6.55;;
56373;SDS011;58212;47.034;7.376;2022-08-18T05:04:36;7.68;;;7.07;;
56373;SDS011;58212;47.034;7.376;2022-08-18T05:07:05;6.80;;;6.20;;
56373;SDS011;58212;47.034;7.376;2022-08-18T05:09:33;7.18;;;6.47;;
56373;SDS011;58212;47.034;7.376;2022-08-18T05:12:01;6.90;;;6.28;;
56373;SDS011;58212;47.034;7.376;2022-08-18T05:14:31;8.10;;;6.63;;
56373;SDS011;58212;47.034;7.376;2022-08-18T05:17:00;7.35;;;6.63;;
56373;SDS011;58212;47.034;7.376;2022-08-18T05:19:32;6.85;;;6.22;;
56373;SDS011;58212;47.034;7.376;2022-08-18T05:21:59;6.25;;;5.70;;
56373;SDS011;58212;47.034;7.376;2022-08-18T05:24:28;5.88;;;5.20;;
56373;SDS011;58212;47.034;7.376;2022-08-18T05:26:57;5.35;;;4.95;;
56373;SDS011;58212;47.034;7.376;2022-08-18T05:29:24;5.72;;;5.32;;
56373;SDS011;58212;47.034;7.376;2022-08-18T05:31:51;6.53;;;5.90;;
56373;SDS011;58212;47.034;7.376;2022-08-18T05:34:19;5.28;;;4.88;;
56373;SDS011;58212;47.034;7.376;2022-08-18T05:36:52;6.00;;;5.47;;
56373;SDS011;58212;47.034;7.376;2022-08-18T05:39:26;4.68;;;4.30;;
56373;SDS011;58212;47.034;7.376;2022-08-18T05:41:59;4.85;;;4.43;;
56373;SDS011;58212;47.034;7.376;2022-08-18T05:44:31;4.40;;;4.10;;
56373;SDS011;58212;47.034;7.376;2022-08-18T05:47:02;4.60;;;4.25;;
56373;SDS011;58212;47.034;7.376;2022-08-18T05:49:32;4.00;;;3.80;;
56373;SDS011;58212;47.034;7.376;2022-08-18T05:52:04;4.00;;;3.70;;
56373;SDS011;58212;47.034;7.376;2022-08-18T05:54:36;4.65;;;4.25;;
56373;SDS011;58212;47.034;7.376;2022-08-18T05:57:26;5.57;;;5.10;;
56373;SDS011;58212;47.034;7.376;2022-08-18T05:59:58;5.60;;;5.15;;
56373;SDS011;58212;47.034;7.376;2022-08-18T06:02:38;5.35;;;4.88;;
56373;SDS011;58212;47.034;7.376;2022-08-18T06:05:19;5.40;;;5.00;;
56373;SDS011;58212;47.034;7.376;2022-08-18T06:07:53;5.72;;;5.25;;
56373;SDS011;58212;47.034;7.376;2022-08-18T06:10:23;6.03;;;5.60;;
56373;SDS011;58212;47.034;7.376;2022-08-18T06:12:52;5.75;;;5.25;;
56373;SDS011;58212;47.034;7.376;2022-08-18T06:15:22;6.10;;;5.57;;
56373;SDS011;58212;47.034;7.376;2022-08-18T06:18:05;5.57;;;5.18;;
56373;SDS011;58212;47.034;7.376;2022-08-18T06:20:51;6.13;;;5.72;;
56373;SDS011;58212;47.034;7.376;2022-08-18T06:23:47;6.20;;;5.75;;
56373;SDS011;58212;47.034;7.376;2022-08-18T06:26:22;6.13;;;5.63;;
56373;SDS011;58212;47.034;7.376;2022-08-18T06:29:06;6.68;;;6.18;;
56373;SDS011;58212;47.034;7.376;2022-08-18T06:31:46;5.80;;;5.30;;
56373;SDS011;58212;47.034;7.376;2022-08-18T06:34:36;6.05;;;5.63;;
56373;SDS011;58212;47.034;7.376;2022-08-18T06:37:16;7.13;;;6.63;;
56373;SDS011;58212;47.034;7.376;2022-08-18T06:39:50;8.07;;;7.40;;
56373;SDS011;58212;47.034;7.376;2022-08-18T06:42:19;7.65;;;6.95;;
56373;SDS011;58212;47.034;7.376;2022-08-18T06:44:50;7.60;;;7.10;;
56373;SDS011;58212;47.034;7.376;2022-08-18T06:47:24;8.35;;;7.65;;
56373;SDS011;58212;47.034;7.376;2022-08-18T06:50:03;9.32;;;8.48;;
56373;SDS011;58212;47.034;7.376;2022-08-18T06:52:34;9.23;;;8.52;;
56373;SDS011;58212;47.034;7.376;2022-08-18T06:55:05;9.23;;;8.43;;
56373;SDS011;58212;47.034;7.376;2022-08-18T06:57:36;8.75;;;8.05;;
56373;SDS011;58212;47.034;7.376;2022-08-18T07:00:07;9.40;;;8.50;;
56373;SDS011;58212;47.034;7.376;2022-08-18T07:02:49;7.82;;;7.22;;
56373;SDS011;58212;47.034;7.376;2022-08-18T07:05:21;8.40;;;7.63;;
56373;SDS011;58212;47.034;7.376;2022-08-18T07:08:07;8.18;;;7.47;;
56373;SDS011;58212;47.034;7.376;2022-08-18T07:10:39;8.20;;;7.53;;
56373;SDS011;58212;47.034;7.376;2022-08-18T07:13:17;8.48;;;7.78;;
56373;SDS011;58212;47.034;7.376;2022-08-18T07:15:50;9.00;;;8.25;;
56373;SDS011;58212;47.034;7.376;2022-08-18T07:18:22;8.43;;;7.60;;
56373;SDS011;58212;47.034;7.376;2022-08-18T07:20:53;8.10;;;7.50;;
56373;SDS011;58212;47.034;7.376;2022-08-18T07:23:27;7.78;;;7.07;;
56373;SDS011;58212;47.034;7.376;2022-08-18T07:26:04;7.93;;;7.22;;
56373;SDS011;58212;47.034;7.376;2022-08-18T07:28:34;6.45;;;5.88;;
56373;SDS011;58212;47.034;7.376;2022-08-18T07:33:54;7.07;;;6.57;;
56373;SDS011;58212;47.034;7.376;2022-08-18T07:36:27;7.75;;;7.15;;
56373;SDS011;58212;47.034;7.376;2022-08-18T07:38:59;7.82;;;7.13;;
56373;SDS011;58212;47.034;7.376;2022-08-18T07:41:35;7.45;;;6.93;;
56373;SDS011;58212;47.034;7.376;2022-08-18T07:44:13;8.45;;;7.78;;
56373;SDS011;58212;47.034;7.376;2022-08-18T07:46:47;8.00;;;7.20;;
56373;SDS011;58212;47.034;7.376;2022-08-18T07:49:21;7.97;;;7.38;;
56373;SDS011;58212;47.034;7.376;2022-08-18T07:51:52;10.90;;;7.93;;
56373;SDS011;58212;47.034;7.376;2022-08-18T07:54:28;9.50;;;8.68;;
56373;SDS011;58212;47.034;7.376;2022-08-18T07:57:10;11.02;;;10.13;;
56373;SDS011;58212;47.034;7.376;2022-08-18T07:59:44;11.90;;;10.88;;
56373;SDS011;58212;47.034;7.376;2022-08-18T08:02:18;10.77;;;9.82;;
56373;SDS011;58212;47.034;7.376;2022-08-18T08:04:55;12.52;;;11.40;;
56373;SDS011;58212;47.034;7.376;2022-08-18T08:07:31;10.63;;;9.82;;
56373;SDS011;58212;47.034;7.376;2022-08-18T08:10:18;12.27;;;10.98;;
56373;SDS011;58212;47.034;7.376;2022-08-18T08:12:57;11.00;;;10.02;;
56373;SDS011;58212;47.034;7.376;2022-08-18T08:15:35;10.02;;;9.23;;
56373;SDS011;58212;47.034;7.376;2022-08-18T08:18:09;11.07;;;9.98;;
56373;SDS011;58212;47.034;7.376;2022-08-18T08:20:45;10.30;;;9.40;;
56373;SDS011;58212;47.034;7.376;2022-08-18T08:23:27;10.18;;;9.27;;
56373;SDS011;58212;47.034;7.376;2022-08-18T08:26:11;9.90;;;9.07;;
56373;SDS011;58212;47.034;7.376;2022-08-18T08:28:52;11.00;;;9.98;;
56373;SDS011;58212;47.034;7.376;2022-08-18T08:31:30;10.25;;;9.27;;
56373;SDS011;58212;47.034;7.376;2022-08-18T08:34:11;9.73;;;8.90;;
56373;SDS011;58212;47.034;7.376;2022-08-18T08:36:45;10.18;;;9.27;;
56373;SDS011;58212;47.034;7.376;2022-08-18T08:39:16;11.32;;;10.52;;
56373;SDS011;58212;47.034;7.376;2022-08-18T08:41:49;13.75;;;12.55;;
56373;SDS011;58212;47.034;7.376;2022-08-18T08:44:21;10.55;;;9.73;;
56373;SDS011;58212;47.034;7.376;2022-08-18T08:46:54;10.55;;;9.68;;
56373;SDS011;58212;47.034;7.376;2022-08-18T08:49:26;11.75;;;10.75;;
56373;SDS011;58212;47.034;7.376;2022-08-18T08:51:59;11.35;;;10.40;;
56373;SDS011;58212;47.034;7.376;2022-08-18T08:54:32;10.77;;;9.93;;
56373;SDS011;58212;47.034;7.376;2022-08-18T08:57:05;11.43;;;10.48;;
56373;SDS011;58212;47.034;7.376;2022-08-18T08:59:37;10.15;;;9.25;;
56373;SDS011;58212;47.034;7.376;2022-08-18T09:02:14;10.88;;;9.90;;
56373;SDS011;58212;47.034;7.376;2022-08-18T09:04:54;10.93;;;9.93;;
56373;SDS011;58212;47.034;7.376;2022-08-18T09:07:33;11.90;;;10.75;;
56373;SDS011;58212;47.034;7.376;2022-08-18T09:10:29;11.85;;;10.75;;
56373;SDS011;58212;47.034;7.376;2022-08-18T09:13:13;11.57;;;10.52;;
56373;SDS011;58212;47.034;7.376;2022-08-18T09:16:20;9.55;;;8.65;;
56373;SDS011;58212;47.034;7.376;2022-08-18T09:19:04;9.95;;;9.15;;
56373;SDS011;58212;47.034;7.376;2022-08-18T09:21:42;11.88;;;10.88;;
56373;SDS011;58212;47.034;7.376;2022-08-18T09:24:17;11.43;;;10.52;;
56373;SDS011;58212;47.034;7.376;2022-08-18T09:26:51;12.05;;;11.05;;
56373;SDS011;58212;47.034;7.376;2022-08-18T09:29:45;11.95;;;10.95;;
56373;SDS011;58212;47.034;7.376;2022-08-18T09:35:34;9.35;;;8.57;;
56373;SDS011;58212;47.034;7.376;2022-08-18T09:38:18;9.75;;;9.02;;
56373;SDS011;58212;47.034;7.376;2022-08-18T09:41:09;7.25;;;6.50;;
56373;SDS011;58212;47.034;7.376;2022-08-18T09:54:05;6.97;;;6.32;;
56373;SDS011;58212;47.034;7.376;2022-08-18T10:05:55;7.72;;;7.13;;
56373;SDS011;58212;47.034;7.376;2022-08-18T10:08:57;7.25;;;6.65;;
56373;SDS011;58212;47.034;7.376;2022-08-18T10:11:47;6.88;;;6.38;;
56373;SDS011;58212;47.034;7.376;2022-08-18T10:14:50;7.20;;;6.20;;
56373;SDS011;58212;47.034;7.376;2022-08-18T10:17:48;7.35;;;6.75;;
56373;SDS011;58212;47.034;7.376;2022-08-18T10:20:36;7.03;;;6.53;;
56373;SDS011;58212;47.034;7.376;2022-08-18T10:23:07;7.18;;;6.55;;
56373;SDS011;58212;47.034;7.376;2022-08-18T10:25:36;5.38;;;4.90;;
56373;SDS011;58212;47.034;7.376;2022-08-18T10:28:07;6.30;;;5.70;;
56373;SDS011;58212;47.034;7.376;2022-08-18T10:30:44;6.68;;;6.03;;
56373;SDS011;58212;47.034;7.376;2022-08-18T10:36:37;6.25;;;5.65;;
56373;SDS011;58212;47.034;7.376;2022-08-18T10:39:12;5.63;;;5.22;;
56373;SDS011;58212;47.034;7.376;2022-08-18T10:41:48;5.57;;;5.18;;
56373;SDS011;58212;47.034;7.376;2022-08-18T10:44:22;6.47;;;5.90;;
56373;SDS011;58212;47.034;7.376;2022-08-18T10:46:54;6.07;;;5.68;;
56373;SDS011;58212;47.034;7.376;2022-08-18T10:49:24;7.75;;;7.05;;
56373;SDS011;58212;47.034;7.376;2022-08-18T10:55:03;6.28;;;5.78;;
56373;SDS011;58212;47.034;7.376;2022-08-18T11:01:06;5.75;;;5.35;;
56373;SDS011;58212;47.034;7.376;2022-08-18T11:03:48;5.38;;;4.93;;
56373;SDS011;58212;47.034;7.376;2022-08-18T11:06:36;5.00;;;4.60;;
56373;SDS011;58212;47.034;7.376;2022-08-18T11:09:06;5.50;;;5.00;;
56373;SDS011;58212;47.034;7.376;2022-08-18T11:11:37;5.95;;;5.45;;
56373;SDS011;58212;47.034;7.376;2022-08-18T11:14:16;5.85;;;5.35;;
56373;SDS011;58212;47.034;7.376;2022-08-18T11:17:00;6.30;;;5.15;;
56373;SDS011;58212;47.034;7.376;2022-08-18T11:19:35;5.57;;;5.05;;
56373;SDS011;58212;47.034;7.376;2022-08-18T11:22:04;5.43;;;4.97;;
56373;SDS011;58212;47.034;7.376;2022-08-18T11:24:32;5.78;;;5.32;;
56373;SDS011;58212;47.034;7.376;2022-08-18T11:27:02;5.85;;;5.25;;
56373;SDS011;58212;47.034;7.376;2022-08-18T11:29:31;6.45;;;5.80;;
56373;SDS011;58212;47.034;7.376;2022-08-18T11:32:01;6.18;;;5.68;;
56373;SDS011;58212;47.034;7.376;2022-08-18T11:34:34;6.88;;;6.18;;
56373;SDS011;58212;47.034;7.376;2022-08-18T11:37:05;6.40;;;5.90;;
56373;SDS011;58212;47.034;7.376;2022-08-18T11:39:40;6.78;;;6.25;;
56373;SDS011;58212;47.034;7.376;2022-08-18T11:42:15;5.80;;;5.40;;
56373;SDS011;58212;47.034;7.376;2022-08-18T11:44:44;6.45;;;5.95;;
56373;SDS011;58212;47.034;7.376;2022-08-18T11:47:13;7.15;;;6.45;;
56373;SDS011;58212;47.034;7.376;2022-08-18T11:49:50;7.38;;;6.78;;
56373;SDS011;58212;47.034;7.376;2022-08-18T11:52:22;7.55;;;6.40;;
56373;SDS011;58212;47.034;7.376;2022-08-18T11:54:51;6.75;;;6.25;;
56373;SDS011;58212;47.034;7.376;2022-08-18T11:57:27;7.00;;;6.50;;
56373;SDS011;58212;47.034;7.376;2022-08-18T12:03:18;7.05;;;6.45;;
56373;SDS011;58212;47.034;7.376;2022-08-18T12:05:52;6.63;;;6.13;;
56373;SDS011;58212;47.034;7.376;2022-08-18T12:08:25;6.75;;;6.25;;
56373;SDS011;58212;47.034;7.376;2022-08-18T12:11:03;7.85;;;7.25;;
56373;SDS011;58212;47.034;7.376;2022-08-18T12:13:40;7.15;;;6.55;;
56373;SDS011;58212;47.034;7.376;2022-08-18T12:16:11;6.65;;;6.10;;
56373;SDS011;58212;47.034;7.376;2022-08-18T12:18:40;6.78;;;6.28;;
56373;SDS011;58212;47.034;7.376;2022-08-18T12:21:08;6.75;;;6.25;;
56373;SDS011;58212;47.034;7.376;2022-08-18T12:23:37;6.03;;;5.63;;
56373;SDS011;58212;47.034;7.376;2022-08-18T12:26:06;6.10;;;5.65;;
56373;SDS011;58212;47.034;7.376;2022-08-18T12:28:33;6.20;;;5.60;;
56373;SDS011;58212;47.034;7.376;2022-08-18T12:31:02;6.07;;;5.65;;
56373;SDS011;58212;47.034;7.376;2022-08-18T12:33:29;6.78;;;6.28;;
56373;SDS011;58212;47.034;7.376;2022-08-18T12:35:59;5.97;;;5.50;;
56373;SDS011;58212;47.034;7.376;2022-08-18T12:38:26;5.70;;;5.30;;
56373;SDS011;58212;47.034;7.376;2022-08-18T12:40:53;6.90;;;6.32;;
56373;SDS011;58212;47.034;7.376;2022-08-18T12:43:21;6.40;;;5.90;;
56373;SDS011;58212;47.034;7.376;2022-08-18T12:45:48;7.28;;;6.57;;
56373;SDS011;58212;47.034;7.376;2022-08-18T12:48:17;6.30;;;5.80;;
56373;SDS011;58212;47.034;7.376;2022-08-18T12:50:44;6.38;;;5.75;;
56373;SDS011;58212;47.034;7.376;2022-08-18T12:53:13;6.10;;;5.70;;
56373;SDS011;58212;47.034;7.376;2022-08-18T12:55:41;5.63;;;4.95;;
56373;SDS011;58212;47.034;7.376;2022-08-18T12:58:09;5.70;;;5.30;;
56373;SDS011;58212;47.034;7.376;2022-08-18T13:00:36;5.82;;;5.22;;
56373;SDS011;58212;47.034;7.376;2022-08-18T13:03:05;5.30;;;4.82;;
56373;SDS011;58212;47.034;7.376;2022-08-18T13:05:33;5.00;;;4.60;;
56373;SDS011;58212;47.034;7.376;2022-08-18T13:08:02;5.00;;;4.68;;
56373;SDS011;58212;47.034;7.376;2022-08-18T13:10:30;6.82;;;6.22;;
56373;SDS011;58212;47.034;7.376;2022-08-18T13:13:00;4.88;;;4.57;;
56373;SDS011;58212;47.034;7.376;2022-08-18T13:15:27;5.05;;;4.55;;
56373;SDS011;58212;47.034;7.376;2022-08-18T13:17:54;5.65;;;5.05;;
56373;SDS011;58212;47.034;7.376;2022-08-18T13:20:21;4.95;;;4.55;;
56373;SDS011;58212;47.034;7.376;2022-08-18T13:22:50;5.10;;;4.70;;
56373;SDS011;58212;47.034;7.376;2022-08-18T13:25:17;5.68;;;4.78;;
56373;SDS011;58212;47.034;7.376;2022-08-18T13:27:45;4.70;;;4.30;;
56373;SDS011;58212;47.034;7.376;2022-08-18T13:30:14;4.75;;;4.35;;
56373;SDS011;58212;47.034;7.376;2022-08-18T13:32:42;4.40;;;4.10;;
56373;SDS011;58212;47.034;7.376;2022-08-18T13:35:09;4.93;;;4.47;;
56373;SDS011;58212;47.034;7.376;2022-08-18T13:37:37;4.70;;;4.30;;
56373;SDS011;58212;47.034;7.376;2022-08-18T13:40:08;4.50;;;4.20;;
56373;SDS011;58212;47.034;7.376;2022-08-18T13:42:41;4.35;;;4.05;;
56373;SDS011;58212;47.034;7.376;2022-08-18T13:45:10;4.38;;;4.07;;
56373;SDS011;58212;47.034;7.376;2022-08-18T13:47:38;4.60;;;4.20;;
56373;SDS011;58212;47.034;7.376;2022-08-18T13:50:07;4.60;;;3.88;;
56373;SDS011;58212;47.034;7.376;2022-08-18T13:52:36;4.97;;;4.55;;
56373;SDS011;58212;47.034;7.376;2022-08-18T13:55:04;4.28;;;3.97;;
56373;SDS011;58212;47.034;7.376;2022-08-18T13:57:38;4.43;;;4.03;;
56373;SDS011;58212;47.034;7.376;2022-08-18T14:00:07;4.35;;;4.05;;
56373;SDS011;58212;47.034;7.376;2022-08-18T14:02:38;4.82;;;4.53;;
56373;SDS011;58212;47.034;7.376;2022-08-18T14:05:06;4.60;;;4.30;;
56373;SDS011;58212;47.034;7.376;2022-08-18T14:07:34;4.88;;;4.47;;
56373;SDS011;58212;47.034;7.376;2022-08-18T14:10:02;4.70;;;4.40;;
56373;SDS011;58212;47.034;7.376;2022-08-18T14:12:33;4.78;;;4.47;;
56373;SDS011;58212;47.034;7.376;2022-08-18T14:15:03;4.07;;;3.72;;
56373;SDS011;58212;47.034;7.376;2022-08-18T14:17:32;4.93;;;4.53;;
56373;SDS011;58212;47.034;7.376;2022-08-18T14:20:00;4.75;;;4.35;;
56373;SDS011;58212;47.034;7.376;2022-08-18T14:22:45;4.55;;;4.15;;
56373;SDS011;58212;47.034;7.376;2022-08-18T14:25:29;4.10;;;3.70;;
56373;SDS011;58212;47.034;7.376;2022-08-18T14:28:17;4.80;;;4.40;;
56373;SDS011;58212;47.034;7.376;2022-08-18T14:30:45;4.97;;;4.63;;
56373;SDS011;58212;47.034;7.376;2022-08-18T14:33:12;5.07;;;4.53;;
56373;SDS011;58212;47.034;7.376;2022-08-18T14:35:44;5.05;;;4.75;;
56373;SDS011;58212;47.034;7.376;2022-08-18T14:38:12;4.78;;;4.43;;
56373;SDS011;58212;47.034;7.376;2022-08-18T14:40:44;5.35;;;4.88;;
56373;SDS011;58212;47.034;7.376;2022-08-18T14:43:12;4.65;;;4.25;;
56373;SDS011;58212;47.034;7.376;2022-08-18T14:45:42;5.30;;;4.88;;
56373;SDS011;58212;47.034;7.376;2022-08-18T14:48:12;5.43;;;5.03;;
56373;SDS011;58212;47.034;7.376;2022-08-18T14:50:40;4.65;;;4.35;;
56373;SDS011;58212;47.034;7.376;2022-08-18T14:53:09;4.80;;;4.50;;
56373;SDS011;58212;47.034;7.376;2022-08-18T14:55:38;5.03;;;4.72;;
56373;SDS011;58212;47.034;7.376;2022-08-18T14:58:07;4.80;;;4.40;;
56373;SDS011;58212;47.034;7.376;2022-08-18T15:00:37;4.45;;;4.10;;
56373;SDS011;58212;47.034;7.376;2022-08-18T15:03:09;5.45;;;5.05;;
56373;SDS011;58212;47.034;7.376;2022-08-18T15:05:36;5.85;;;4.90;;
56373;SDS011;58212;47.034;7.376;2022-08-18T15:08:03;4.80;;;4.40;;
56373;SDS011;58212;47.034;7.376;2022-08-18T15:10:33;4.45;;;4.10;;
56373;SDS011;58212;47.034;7.376;2022-08-18T15:13:00;5.32;;;4.93;;
56373;SDS011;58212;47.034;7.376;2022-08-18T15:15:27;6.28;;;5.82;;
56373;SDS011;58212;47.034;7.376;2022-08-18T15:17:57;5.38;;;4.97;;
56373;SDS011;58212;47.034;7.376;2022-08-18T15:20:26;4.78;;;4.38;;
56373;SDS011;58212;47.034;7.376;2022-08-18T15:22:58;5.05;;;4.65;;
56373;SDS011;58212;47.034;7.376;2022-08-18T15:25:44;5.22;;;4.72;;
56373;SDS011;58212;47.034;7.376;2022-08-18T15:28:14;5.10;;;4.60;;
56373;SDS011;58212;47.034;7.376;2022-08-18T15:30:42;5.75;;;5.18;;
56373;SDS011;58212;47.034;7.376;2022-08-18T15:33:10;5.45;;;4.95;;
56373;SDS011;58212;47.034;7.376;2022-08-18T15:35:41;5.63;;;5.00;;
56373;SDS011;58212;47.034;7.376;2022-08-18T15:38:09;4.90;;;4.50;;
56373;SDS011;58212;47.034;7.376;2022-08-18T15:40:38;4.50;;;4.20;;
56373;SDS011;58212;47.034;7.376;2022-08-18T15:43:14;4.68;;;4.38;;
56373;SDS011;58212;47.034;7.376;2022-08-18T15:45:42;4.93;;;4.63;;
56373;SDS011;58212;47.034;7.376;2022-08-18T15:48:12;6.60;;;4.70;;
56373;SDS011;58212;47.034;7.376;2022-08-18T15:50:41;5.28;;;4.85;;
56373;SDS011;58212;47.034;7.376;2022-08-18T15:53:11;5.65;;;5.13;;